createdAt,value
2022-10-17T00:00:34.718Z,101593.25
2022-10-17T00:03:01.798Z,101594.06
2022-10-17T00:05:28.824Z,101573.34
2022-10-17T00:07:55.875Z,101616.59
2022-10-17T00:10:22.594Z,101572.22
2022-10-17T00:12:51.540Z,101604.41
2022-10-17T00:15:20.171Z,101611.25
2022-10-17T00:17:47.134Z,101481.88
2022-10-17T00:20:13.793Z,101621.78
2022-10-17T00:22:40.887Z,101571.13
2022-10-17T00:25:08.229Z,101428.72
2022-10-17T00:27:38.255Z,101626.25
2022-10-17T00:30:06.795Z,101591.38
2022-10-17T00:32:33.507Z,101505.69
2022-10-17T00:35:00.267Z,101616.69
2022-10-17T00:37:27.013Z,101614.63
2022-10-17T00:39:54.380Z,101457.06
2022-10-17T00:42:21.081Z,101613.66
2022-10-17T00:44:48.019Z,101519.53
2022-10-17T00:47:19.887Z,101603.19
2022-10-17T00:49:47.898Z,101619.69
2022-10-17T00:52:19.596Z,101621.53
2022-10-17T00:54:49.594Z,101629.03
2022-10-17T00:57:17.570Z,101554.44
2022-10-17T00:59:50.482Z,101639.47
2022-10-17T01:02:19.508Z,101643.38
2022-10-17T01:04:50.037Z,101649.63
2022-10-17T01:07:16.939Z,101638.81
2022-10-17T01:09:45.655Z,101637.31
2022-10-17T01:12:27.455Z,101517.84
2022-10-17T01:15:31.087Z,101632.13
2022-10-17T01:18:14.811Z,101621.09
2022-10-17T01:20:47.331Z,101485.34
2022-10-17T01:23:43.290Z,101549.00
2022-10-17T01:26:30.923Z,101603.84
2022-10-17T01:29:15.210Z,101637.97
2022-10-17T01:31:55.769Z,101632.97
2022-10-17T01:34:32.949Z,101641.28
2022-10-17T01:37:16.154Z,101621.56
2022-10-17T01:39:48.171Z,101490.28
2022-10-17T01:42:33.510Z,101629.94
2022-10-17T01:45:25.591Z,101623.69
2022-10-17T01:47:54.401Z,101556.75
2022-10-17T01:50:28.002Z,101628.22
2022-10-17T01:53:02.083Z,101633.84
2022-10-17T01:55:42.408Z,101625.53
2022-10-17T01:58:17.499Z,101610.56
2022-10-17T02:00:45.478Z,101603.50
2022-10-17T02:03:17.687Z,101616.19
2022-10-17T02:05:44.232Z,101611.00
2022-10-17T02:08:11.530Z,101512.50
2022-10-17T02:11:03.001Z,101609.31
2022-10-17T02:14:07.163Z,101598.50
2022-10-17T02:17:03.589Z,101599.13
2022-10-17T02:19:39.083Z,101493.41
2022-10-17T02:22:16.878Z,101484.47
2022-10-17T02:25:01.863Z,101583.53
2022-10-17T02:27:34.608Z,101382.16
2022-10-17T02:30:24.019Z,101574.81
2022-10-17T02:33:00.004Z,101583.34
2022-10-17T02:35:31.522Z,101557.41
2022-10-17T02:37:59.916Z,101579.84
2022-10-17T02:40:29.719Z,101579.38
2022-10-17T02:42:58.550Z,101571.91
2022-10-17T02:45:28.064Z,101583.16
2022-10-17T02:48:03.554Z,101564.81
2022-10-17T02:51:00.824Z,101568.06
2022-10-17T02:53:34.914Z,101468.03
2022-10-17T02:56:08.530Z,101567.25
2022-10-17T02:58:37.584Z,101567.25
2022-10-17T03:01:04.921Z,101562.66
2022-10-17T03:03:32.733Z,101535.22
2022-10-17T03:05:59.450Z,101502.72
2022-10-17T03:08:26.801Z,101544.78
2022-10-17T03:10:53.591Z,101514.94
2022-10-17T03:13:20.919Z,101539.41
2022-10-17T03:15:48.024Z,101533.72
2022-10-17T03:18:14.761Z,101538.94
2022-10-17T03:20:41.178Z,101497.53
2022-10-17T03:23:07.886Z,101524.53
2022-10-17T03:25:35.866Z,101535.91
2022-10-17T03:28:02.425Z,101525.81
2022-10-17T03:30:29.466Z,101530.22
2022-10-17T03:32:58.221Z,101506.50
2022-10-17T03:35:25.661Z,101523.06
2022-10-17T03:37:52.595Z,101488.72
2022-10-17T03:40:19.074Z,101524.41
2022-10-17T03:42:45.815Z,101518.28
2022-10-17T03:45:12.594Z,101519.22
2022-10-17T03:47:39.415Z,101514.53
2022-10-17T03:50:06.407Z,101521.84
2022-10-17T03:52:33.274Z,101528.81
2022-10-17T03:55:03.528Z,101529.88
2022-10-17T03:57:30.407Z,101532.00
2022-10-17T03:59:59.349Z,101496.41
2022-10-17T04:02:26.052Z,101524.09
2022-10-17T04:04:54.057Z,101520.09
2022-10-17T04:07:20.635Z,101521.66
2022-10-17T04:09:48.440Z,101495.66
2022-10-17T04:12:14.949Z,101468.47
2022-10-17T04:14:41.413Z,101512.38
2022-10-17T04:17:08.099Z,101514.63
2022-10-17T04:19:35.211Z,101516.78
2022-10-17T04:22:03.439Z,101510.03
2022-10-17T04:24:30.522Z,101503.56
2022-10-17T04:26:57.771Z,101395.41
2022-10-17T04:29:25.909Z,101503.00
2022-10-17T04:31:52.732Z,101502.88
2022-10-17T04:34:19.704Z,101505.34
2022-10-17T04:36:47.236Z,101451.06
2022-10-17T04:41:42.362Z,101506.25
2022-10-17T04:44:10.678Z,101477.31
2022-10-17T04:46:37.347Z,101480.03
2022-10-17T04:49:03.959Z,101475.16
2022-10-17T04:51:30.908Z,101503.69
2022-10-17T04:53:58.476Z,101504.66
2022-10-17T04:56:25.712Z,101497.94
2022-10-17T04:58:52.643Z,101496.44
2022-10-17T05:01:22.580Z,101481.91
2022-10-17T05:04:02.503Z,101494.25
2022-10-17T05:06:29.267Z,101479.28
2022-10-17T05:08:56.089Z,101487.88
2022-10-17T05:11:25.748Z,101491.31
2022-10-17T05:13:54.721Z,101478.44
2022-10-17T05:16:22.103Z,101420.53
2022-10-17T05:18:53.831Z,101458.13
2022-10-17T05:21:21.732Z,101475.66
2022-10-17T05:23:48.393Z,101453.50
2022-10-17T05:26:15.442Z,101425.56
2022-10-17T05:28:42.403Z,101466.19
2022-10-17T05:31:11.034Z,101439.25
2022-10-17T05:33:39.055Z,101467.78
2022-10-17T05:36:06.448Z,101472.53
2022-10-17T05:38:33.228Z,101468.59
2022-10-17T05:41:00.931Z,101464.03
2022-10-17T05:43:28.224Z,101451.31
2022-10-17T05:45:55.296Z,101465.28
2022-10-17T05:48:23.035Z,101458.38
2022-10-17T05:50:50.240Z,101460.66
2022-10-17T05:53:17.475Z,101440.94
2022-10-17T05:55:45.366Z,101464.50
2022-10-17T05:58:21.731Z,101479.84
2022-10-17T06:00:49.156Z,101466.16
2022-10-17T06:03:15.719Z,101439.78
2022-10-17T06:05:42.419Z,101457.91
2022-10-17T06:08:09.040Z,101442.69
2022-10-17T06:10:35.854Z,101463.84
2022-10-17T06:13:02.569Z,101465.31
2022-10-17T06:15:29.726Z,101468.16
2022-10-17T06:17:56.842Z,101447.50
2022-10-17T06:20:23.596Z,101438.50
2022-10-17T06:22:51.621Z,101458.56
2022-10-17T06:25:18.165Z,101470.88
2022-10-17T06:27:44.933Z,101469.00
2022-10-17T06:30:12.181Z,101390.88
2022-10-17T06:32:38.935Z,101466.50
2022-10-17T06:35:06.046Z,101435.41
2022-10-17T06:37:36.450Z,101458.22
2022-10-17T06:40:04.302Z,101447.81
2022-10-17T06:42:31.008Z,101467.78
2022-10-17T06:45:00.440Z,101462.25
2022-10-17T06:47:27.367Z,101460.34
2022-10-17T06:49:54.116Z,101461.47
2022-10-17T06:52:21.642Z,101463.97
2022-10-17T06:54:48.584Z,101441.63
2022-10-17T06:57:16.102Z,101450.34
2022-10-17T06:59:43.539Z,101462.13
2022-10-17T07:02:10.962Z,101464.09
2022-10-17T07:04:38.224Z,101466.00
2022-10-17T07:07:06.015Z,101471.06
2022-10-17T07:09:33.078Z,101469.31
2022-10-17T07:12:00.574Z,101441.78
2022-10-17T07:14:31.992Z,101471.53
2022-10-17T07:16:59.864Z,101470.16
2022-10-17T07:19:29.636Z,101464.31
2022-10-17T07:21:56.807Z,101468.63
2022-10-17T07:24:24.579Z,101465.25
2022-10-17T07:26:51.198Z,101472.13
2022-10-17T07:29:17.611Z,101487.69
2022-10-17T07:31:45.608Z,101491.31
2022-10-17T07:34:12.098Z,101489.50
2022-10-17T07:36:38.795Z,101478.78
2022-10-17T07:39:05.872Z,101473.81
2022-10-17T07:41:32.447Z,101466.78
2022-10-17T07:43:59.158Z,101378.16
2022-10-17T07:46:25.730Z,101441.53
2022-10-17T07:48:52.292Z,101465.16
2022-10-17T07:51:20.282Z,101485.47
2022-10-17T07:53:48.818Z,101368.97
2022-10-17T07:56:17.638Z,101453.16
2022-10-17T07:58:44.145Z,101453.09
2022-10-17T08:01:15.517Z,101471.59
2022-10-17T08:03:44.637Z,101482.59
2022-10-17T08:06:12.176Z,101493.81
2022-10-17T08:08:39.183Z,101494.69
2022-10-17T08:11:08.138Z,101378.44
2022-10-17T08:13:35.174Z,101489.50
2022-10-17T08:16:03.644Z,101386.84
2022-10-17T08:18:30.532Z,101478.34
2022-10-17T08:21:00.779Z,101435.81
2022-10-17T08:23:30.009Z,101287.88
2022-10-17T08:25:59.832Z,101475.31
2022-10-17T08:28:26.565Z,101476.06
2022-10-17T08:30:52.970Z,101473.06
2022-10-17T08:33:19.389Z,101467.81
2022-10-17T08:35:46.266Z,101369.50
2022-10-17T08:38:13.513Z,101453.19
2022-10-17T08:40:42.826Z,101451.19
2022-10-17T08:43:35.377Z,101274.56
2022-10-17T08:46:05.319Z,101404.72
2022-10-17T08:48:46.723Z,101422.41
2022-10-17T08:51:24.726Z,101425.50
2022-10-17T08:54:22.289Z,101421.75
2022-10-17T08:56:51.247Z,101437.34
2022-10-17T08:59:28.469Z,101434.19
2022-10-17T09:02:48.094Z,101395.25
2022-10-17T09:05:33.394Z,101428.16
2022-10-17T09:08:17.545Z,101426.38
2022-10-17T09:10:57.021Z,101407.97
2022-10-17T09:14:02.268Z,101360.31
2022-10-17T09:16:43.908Z,101359.88
2022-10-17T09:19:31.572Z,101361.88
2022-10-17T09:22:05.853Z,101356.41
2022-10-17T09:24:48.338Z,101355.88
2022-10-17T09:27:24.095Z,101291.41
2022-10-17T09:29:57.616Z,101447.75
2022-10-17T09:32:25.571Z,101460.81
2022-10-17T09:34:53.946Z,101457.88
2022-10-17T09:37:25.565Z,101388.25
2022-10-17T09:39:52.481Z,101458.41
2022-10-17T09:42:21.761Z,101463.41
2022-10-17T09:45:19.613Z,101468.88
2022-10-17T09:48:02.062Z,101469.63
2022-10-17T09:50:34.352Z,101460.72
2022-10-17T09:53:10.061Z,101388.47
2022-10-17T09:55:43.276Z,101456.09
2022-10-17T09:58:10.883Z,101426.91
2022-10-17T10:00:44.208Z,101456.31
2022-10-17T10:03:25.251Z,101457.31
2022-10-17T10:06:01.327Z,101433.44
2022-10-17T10:08:36.603Z,101463.41
2022-10-17T10:11:06.585Z,101464.25
2022-10-17T10:13:35.368Z,101455.84
2022-10-17T10:16:14.061Z,101463.31
2022-10-17T10:18:40.529Z,101401.44
2022-10-17T10:21:16.547Z,101285.16
2022-10-17T10:23:45.477Z,101361.19
2022-10-17T10:26:22.461Z,101268.75
2022-10-17T10:29:01.843Z,101465.25
2022-10-17T10:31:43.007Z,101445.03
2022-10-17T10:34:22.323Z,101394.94
2022-10-17T10:37:01.107Z,101230.13
2022-10-17T10:39:47.834Z,101475.16
2022-10-17T10:42:25.512Z,101363.44
2022-10-17T10:44:54.152Z,101467.81
2022-10-17T10:47:22.626Z,101378.22
2022-10-17T10:49:52.755Z,101469.78
2022-10-17T10:52:41.754Z,101478.03
2022-10-17T10:55:32.327Z,101294.06
2022-10-17T10:58:03.941Z,101464.59
2022-10-17T11:00:34.869Z,101374.25
2022-10-17T11:03:16.186Z,101468.81
2022-10-17T11:05:58.017Z,101464.81
2022-10-17T11:09:11.108Z,101457.91
2022-10-17T11:11:45.607Z,101464.72
2022-10-17T11:14:39.013Z,101468.34
2022-10-17T11:17:24.109Z,101491.25
2022-10-17T11:20:10.538Z,101475.97
2022-10-17T11:23:13.974Z,101406.00
2022-10-17T11:25:41.379Z,101464.56
2022-10-17T11:28:18.034Z,101481.69
2022-10-17T11:31:04.539Z,101428.94
2022-10-17T11:33:50.785Z,101484.00
2022-10-17T11:36:22.735Z,101469.59
2022-10-17T11:39:00.113Z,101480.72
2022-10-17T11:41:43.717Z,101474.72
2022-10-17T11:44:35.132Z,101492.75
2022-10-17T11:47:29.792Z,101470.09
2022-10-17T11:53:03.840Z,101374.97
2022-10-17T11:55:34.294Z,101438.88
2022-10-17T11:58:39.072Z,101456.94
2022-10-17T12:02:03.116Z,101457.50
2022-10-17T12:04:49.669Z,101451.72
2022-10-17T12:07:33.656Z,101437.00
2022-10-17T12:10:20.776Z,101448.03
2022-10-17T12:12:49.521Z,101449.53
2022-10-17T12:15:25.349Z,101445.22
2022-10-17T12:18:03.389Z,101459.06
2022-10-17T12:20:31.253Z,101473.66
2022-10-17T12:23:13.341Z,101344.75
2022-10-17T12:25:58.256Z,101516.78
2022-10-17T12:28:45.744Z,101432.78
2022-10-17T12:31:23.164Z,101437.78
2022-10-17T12:33:58.271Z,101538.69
2022-10-17T12:36:28.133Z,101542.56
2022-10-17T12:39:11.750Z,101444.16
2022-10-17T12:41:38.692Z,101419.16
2022-10-17T12:44:14.741Z,101536.19
2022-10-17T12:47:10.933Z,101517.31
2022-10-17T12:49:55.770Z,101512.03
2022-10-17T12:52:32.762Z,101512.88
2022-10-17T12:55:13.130Z,101335.78
2022-10-17T12:57:49.828Z,101339.88
2022-10-17T13:00:35.947Z,101428.53
2022-10-17T13:03:31.248Z,101535.06
2022-10-17T13:06:01.364Z,101508.81
2022-10-17T13:08:33.904Z,101533.28
2022-10-17T13:11:01.560Z,101517.22
2022-10-17T13:13:41.909Z,101543.72
2022-10-17T13:16:08.948Z,101519.31
2022-10-17T13:18:36.014Z,101561.31
2022-10-17T13:21:15.864Z,101556.63
2022-10-17T13:23:42.508Z,101560.63
2022-10-17T13:26:23.909Z,101576.72
2022-10-17T13:29:07.322Z,101510.03
2022-10-17T13:31:37.228Z,101556.69
2022-10-17T13:34:07.124Z,101619.22
2022-10-17T13:36:35.786Z,101638.97
2022-10-17T13:39:13.693Z,101454.97
2022-10-17T13:41:42.021Z,101526.13
2022-10-17T13:44:19.481Z,101541.06
2022-10-17T13:46:46.807Z,101388.53
2022-10-17T13:49:41.623Z,101351.84
2022-10-17T13:52:26.367Z,101536.78
2022-10-17T13:54:56.424Z,101547.66
2022-10-17T13:57:29.695Z,101567.00
2022-10-17T14:00:12.409Z,101565.22
2022-10-17T14:02:41.474Z,101559.63
2022-10-17T14:05:17.117Z,101585.91
2022-10-17T14:10:43.488Z,101577.22
2022-10-17T14:13:26.258Z,101601.22
2022-10-17T14:15:56.018Z,101625.53
2022-10-17T14:18:33.428Z,101611.66
2022-10-17T14:23:51.766Z,101542.28
2022-10-17T14:26:23.732Z,101571.59
2022-10-17T14:29:25.614Z,101564.63
2022-10-17T14:32:02.872Z,101383.97
2022-10-17T14:34:33.802Z,101557.34
2022-10-17T14:37:02.306Z,101553.66
2022-10-17T14:39:29.492Z,101527.09
2022-10-17T14:41:57.910Z,101485.47
2022-10-17T14:44:29.267Z,101460.47
2022-10-17T14:47:00.225Z,101568.66
2022-10-17T14:49:34.080Z,101589.78
2022-10-17T14:52:33.881Z,101566.16
2022-10-17T14:55:20.657Z,101599.75
2022-10-17T14:57:47.183Z,101603.00
2022-10-17T15:00:16.662Z,101602.50
2022-10-17T15:02:43.307Z,101593.75
2022-10-17T15:05:18.259Z,101547.38
2022-10-17T15:07:44.960Z,101620.88
2022-10-17T15:10:44.998Z,101629.44
2022-10-17T15:13:27.797Z,101615.22
2022-10-17T15:15:55.142Z,101532.84
2022-10-17T15:18:22.548Z,101644.59
2022-10-17T15:20:55.352Z,101624.06
2022-10-17T15:23:32.474Z,101654.53
2022-10-17T15:25:58.925Z,101657.31
2022-10-17T15:28:25.478Z,101658.78
2022-10-17T15:30:52.137Z,101671.34
2022-10-17T15:33:18.736Z,101662.56
2022-10-17T15:36:00.200Z,101677.94
2022-10-17T15:38:26.695Z,101661.16
2022-10-17T15:40:53.241Z,101556.47
2022-10-17T15:43:20.247Z,101676.00
2022-10-17T15:45:47.208Z,101474.66
2022-10-17T15:48:23.410Z,101609.16
2022-10-17T15:50:49.871Z,101688.75
2022-10-17T15:53:16.469Z,101680.00
2022-10-17T15:55:42.867Z,101699.59
2022-10-17T15:58:15.191Z,101702.28
2022-10-17T16:00:42.087Z,101605.59
2022-10-17T16:03:10.979Z,101693.13
2022-10-17T16:05:37.763Z,101696.44
2022-10-17T16:08:04.371Z,101671.88
2022-10-17T16:10:30.827Z,101699.28
2022-10-17T16:12:58.034Z,101691.91
2022-10-17T16:15:26.645Z,101671.56
2022-10-17T16:17:55.867Z,101676.28
2022-10-17T16:20:24.163Z,101661.97
2022-10-17T16:22:51.222Z,101692.00
2022-10-17T16:25:21.393Z,101594.25
2022-10-17T16:27:50.350Z,101705.19
2022-10-17T16:30:17.555Z,101621.69
2022-10-17T16:32:44.649Z,101673.63
2022-10-17T16:35:18.883Z,101641.16
2022-10-17T16:37:45.649Z,101662.69
2022-10-17T16:40:12.142Z,101675.41
2022-10-17T16:42:38.564Z,101617.94
2022-10-17T16:45:05.562Z,101726.72
2022-10-17T16:47:32.247Z,101642.44
2022-10-17T16:49:58.728Z,101720.69
2022-10-17T16:52:25.507Z,101722.75
2022-10-17T16:54:51.987Z,101707.38
2022-10-17T16:57:19.277Z,101723.88
2022-10-17T16:59:45.750Z,101705.56
2022-10-17T17:02:17.570Z,101728.38
2022-10-17T17:04:47.177Z,101742.50
2022-10-17T17:07:14.441Z,101695.16
2022-10-17T17:09:47.888Z,101743.69
2022-10-17T17:12:16.141Z,101739.34
2022-10-17T17:14:43.229Z,101745.34
2022-10-17T17:17:19.386Z,101752.34
2022-10-17T17:19:56.735Z,101753.06
2022-10-17T17:22:23.127Z,101549.34
2022-10-17T17:27:15.907Z,101762.75
2022-10-17T17:29:42.501Z,101762.50
2022-10-17T17:32:09.011Z,101765.75
2022-10-17T17:34:36.966Z,101762.31
2022-10-17T17:37:03.867Z,101746.97
2022-10-17T17:39:30.440Z,101761.44
2022-10-17T17:41:56.821Z,101733.91
2022-10-17T17:44:23.204Z,101722.44
2022-10-17T17:46:49.683Z,101675.19
2022-10-17T17:49:16.135Z,101786.06
2022-10-17T17:51:46.150Z,101705.34
2022-10-17T17:54:13.069Z,101783.13
2022-10-17T17:56:39.646Z,101757.66
2022-10-17T17:59:06.139Z,101789.69
2022-10-17T18:01:39.094Z,101791.72
2022-10-17T18:04:08.877Z,101677.50
2022-10-17T18:06:36.479Z,101749.63
2022-10-17T18:09:04.072Z,101720.44
2022-10-17T18:11:30.881Z,101795.81
2022-10-17T18:14:03.895Z,101701.41
2022-10-17T18:16:32.480Z,101798.22
2022-10-17T18:19:04.060Z,101805.44
2022-10-17T18:21:33.771Z,101673.06
2022-10-17T18:24:00.218Z,101765.59
2022-10-17T18:26:27.083Z,101795.09
2022-10-17T18:28:53.821Z,101804.63
2022-10-17T18:31:25.007Z,101689.97
2022-10-17T18:33:52.957Z,101789.88
2022-10-17T18:36:19.751Z,101668.06
2022-10-17T18:38:46.204Z,101805.91
2022-10-17T18:41:18.704Z,101745.44
2022-10-17T18:43:46.772Z,101795.25
2022-10-17T18:46:19.572Z,101801.59
2022-10-17T18:48:47.326Z,101821.34
2022-10-17T18:51:15.883Z,101819.28
2022-10-17T18:53:44.753Z,101614.91
2022-10-17T18:56:12.655Z,101635.53
2022-10-17T18:58:40.286Z,101719.75
2022-10-17T19:01:10.175Z,101829.25
2022-10-17T19:03:37.226Z,101732.66
2022-10-17T19:06:07.356Z,101846.22
2022-10-17T19:08:34.769Z,101813.28
2022-10-17T19:11:11.485Z,101820.97
2022-10-17T19:13:38.211Z,101837.31
2022-10-17T19:16:13.283Z,101856.22
2022-10-17T19:18:40.214Z,101814.06
2022-10-17T19:21:11.567Z,101854.72
2022-10-17T19:23:39.066Z,101851.84
2022-10-17T19:26:10.373Z,101840.00
2022-10-17T19:28:39.907Z,101845.94
2022-10-17T19:31:14.098Z,101817.16
2022-10-17T19:33:43.488Z,101765.34
2022-10-17T19:36:11.303Z,101812.66
2022-10-17T19:38:37.855Z,101832.78
2022-10-17T19:41:09.968Z,101824.97
2022-10-17T19:43:37.582Z,101841.66
2022-10-17T19:46:07.731Z,101586.63
2022-10-17T19:48:36.783Z,101837.88
2022-10-17T19:51:05.114Z,101845.34
2022-10-17T19:53:33.590Z,101845.94
2022-10-17T19:56:00.955Z,101857.19
2022-10-17T19:58:27.981Z,101875.28
2022-10-17T20:00:57.253Z,101870.69
2022-10-17T20:03:29.573Z,101874.56
2022-10-17T20:05:58.366Z,101882.38
2022-10-17T20:10:52.336Z,101901.78
2022-10-17T20:13:18.907Z,101853.63
2022-10-17T20:15:56.060Z,101914.22
2022-10-17T20:18:24.420Z,101869.38
2022-10-17T20:20:50.919Z,101924.88
2022-10-17T20:23:17.855Z,101924.66
2022-10-17T20:25:45.560Z,101845.25
2022-10-17T20:28:12.459Z,101930.06
2022-10-17T20:30:46.635Z,101831.44
2022-10-17T20:33:15.494Z,101868.53
2022-10-17T20:35:43.302Z,101904.97
2022-10-17T20:38:12.334Z,101843.91
2022-10-17T20:40:39.432Z,101933.91
2022-10-17T20:43:08.253Z,101706.81
2022-10-17T20:45:50.611Z,101954.72
2022-10-17T20:48:18.470Z,101951.66
2022-10-17T20:50:45.331Z,101791.88
2022-10-17T20:56:09.167Z,101958.25
2022-10-17T20:58:36.038Z,101953.56
2022-10-17T21:01:10.612Z,101957.78
2022-10-17T21:03:42.383Z,101982.19
2022-10-17T21:06:16.318Z,101952.88
2022-10-17T21:08:45.237Z,101843.56
2022-10-17T21:11:18.355Z,102002.34
2022-10-17T21:13:45.815Z,101991.53
2022-10-17T21:16:18.093Z,101961.97
2022-10-17T21:18:45.156Z,101984.50
2022-10-17T21:21:28.925Z,101893.53
2022-10-17T21:23:58.511Z,101882.53
2022-10-17T21:26:25.206Z,101978.78
2022-10-17T21:28:51.877Z,101979.78
2022-10-17T21:31:21.685Z,101834.03
2022-10-17T21:33:51.231Z,101887.25
2022-10-17T21:36:19.036Z,101981.50
2022-10-17T21:38:47.752Z,101979.00
2022-10-17T21:41:19.669Z,101977.09
2022-10-17T21:43:48.943Z,101841.28
2022-10-17T21:46:18.485Z,101986.81
2022-10-17T21:48:49.091Z,101977.28
2022-10-17T21:51:17.468Z,101994.81
2022-10-17T21:53:44.749Z,101990.56
2022-10-17T21:56:21.423Z,101780.91
2022-10-17T21:58:48.683Z,101982.75
2022-10-17T22:01:19.156Z,101946.38
2022-10-17T22:03:50.047Z,101977.78
2022-10-17T22:09:15.749Z,101936.59
2022-10-17T22:11:45.696Z,102005.16
2022-10-17T22:14:16.303Z,101783.50
2022-10-17T22:16:45.046Z,101997.94
2022-10-17T22:19:13.324Z,101947.19
2022-10-17T22:21:41.560Z,101951.88
2022-10-17T22:24:13.914Z,101998.75
2022-10-17T22:26:44.255Z,102006.88
2022-10-17T22:29:12.006Z,101866.31
2022-10-17T22:31:39.851Z,101969.84
2022-10-17T22:34:07.301Z,101941.03
2022-10-17T22:36:35.957Z,101913.84
2022-10-17T22:39:03.208Z,102007.41
2022-10-17T22:41:30.717Z,101993.34
2022-10-17T22:43:58.919Z,102002.16
2022-10-17T22:46:26.443Z,101821.03
2022-10-17T22:48:54.388Z,102008.81
2022-10-17T22:51:21.633Z,101895.13
2022-10-17T22:53:49.032Z,102001.03
2022-10-17T22:56:18.966Z,101991.84
2022-10-17T22:58:46.722Z,101774.81
2022-10-17T23:01:16.830Z,102002.38
2022-10-17T23:03:43.688Z,102020.63
2022-10-17T23:06:10.640Z,101752.97
2022-10-17T23:08:37.471Z,101905.75
2022-10-17T23:11:05.193Z,101828.16
2022-10-17T23:13:32.374Z,102019.19
2022-10-17T23:15:59.867Z,101954.53
2022-10-17T23:20:57.729Z,101997.22
2022-10-17T23:23:24.621Z,102017.94
2022-10-17T23:25:51.802Z,102026.94
2022-10-17T23:28:18.407Z,102014.06
2022-10-17T23:30:45.531Z,101827.16
2022-10-17T23:33:13.612Z,101988.66
2022-10-17T23:35:41.021Z,102017.16
2022-10-17T23:38:07.833Z,102022.84
2022-10-17T23:40:35.576Z,102005.59
2022-10-17T23:43:03.451Z,102014.88
2022-10-17T23:45:34.727Z,101971.59
2022-10-17T23:48:04.148Z,102008.31
2022-10-17T23:50:30.709Z,101993.13
2022-10-17T23:52:57.392Z,102006.47
2022-10-17T23:55:24.368Z,102012.25
2022-10-17T23:57:51.665Z,102014.13
